FSrealWX - Weather AddOn for Flightsimulators FS2004, FSX, P3D and Xplane

Metar read log error

More
8 months 2 weeks ago #2838 by mteljeur
Well this is an error issue I have as long as I am use FSrealWXv2:

02.01.21 10:43:07 - (WeatherManager) EHAM, QNH Metar Error, EHAM 020925Z 15004KT 8000 0400E R18C/P2000N R27/1000D R18R/P2000N R06/P2000N BCFG FEW021 SCT038 02/01 Q1013 BECMG 2500

This only happens when there is a RVR active resulting in a fixed temp/qnh1013 injected in the sim. Visibility however is in accordance with metar
Fyi I do not intent to change to v3 I am quiet happy with the version 2 I am using now for many years. together with FS9.

I do hope there's a solution for this issue.

Cheers,

Marcel
The following user(s) said Thank You: SilloAdmin, niksan29

Please Log in or Create an account to join the conversation.

Time to create page: 1.882 seconds

We use cookies on our website. Some of them are essential for the operation of the site, while others help us to improve this site and the user experience (tracking cookies). You can decide for yourself whether you want to allow cookies or not. Please note that if you reject them, you may not be able to use all the functionalities of the site.